sensor_id;sensor_type;location;lat;lon;timestamp;temperature;humidity
41116;DHT22;26861;51.824;4.682;2024-01-06T00:01:45;15.70;73.30
41116;DHT22;26861;51.824;4.682;2024-01-06T00:04:10;15.60;73.50
41116;DHT22;26861;51.824;4.682;2024-01-06T00:06:36;15.60;73.30
41116;DHT22;26861;51.824;4.682;2024-01-06T00:09:01;15.90;73.70
41116;DHT22;26861;51.824;4.682;2024-01-06T00:11:27;15.70;73.40
41116;DHT22;26861;51.824;4.682;2024-01-06T00:13:52;15.70;73.40
41116;DHT22;26861;51.824;4.682;2024-01-06T00:16:18;15.70;73.40
41116;DHT22;26861;51.824;4.682;2024-01-06T00:18:44;15.70;73.20
41116;DHT22;26861;51.824;4.682;2024-01-06T00:21:10;15.70;73.40
41116;DHT22;26861;51.824;4.682;2024-01-06T00:23:35;15.60;73.30
41116;DHT22;26861;51.824;4.682;2024-01-06T00:26:00;15.70;73.20
41116;DHT22;26861;51.824;4.682;2024-01-06T00:28:27;15.60;73.20
41116;DHT22;26861;51.824;4.682;2024-01-06T00:30:53;15.70;73.30
41116;DHT22;26861;51.824;4.682;2024-01-06T00:33:18;15.60;73.10
41116;DHT22;26861;51.824;4.682;2024-01-06T00:35:44;15.60;73.50
41116;DHT22;26861;51.824;4.682;2024-01-06T00:38:09;15.70;73.30
41116;DHT22;26861;51.824;4.682;2024-01-06T00:40:35;15.60;72.30
41116;DHT22;26861;51.824;4.682;2024-01-06T00:43:00;15.60;73.10
41116;DHT22;26861;51.824;4.682;2024-01-06T00:45:26;15.60;73.10
41116;DHT22;26861;51.824;4.682;2024-01-06T00:47:51;15.60;72.90
41116;DHT22;26861;51.824;4.682;2024-01-06T00:50:17;15.60;73.10
41116;DHT22;26861;51.824;4.682;2024-01-06T00:52:45;15.70;73.10
41116;DHT22;26861;51.824;4.682;2024-01-06T00:55:11;15.60;72.70
41116;DHT22;26861;51.824;4.682;2024-01-06T00:57:37;15.60;72.80
41116;DHT22;26861;51.824;4.682;2024-01-06T01:00:04;15.90;73.00
41116;DHT22;26861;51.824;4.682;2024-01-06T01:02:30;15.50;72.60
41116;DHT22;26861;51.824;4.682;2024-01-06T01:04:58;15.60;73.00
41116;DHT22;26861;51.824;4.682;2024-01-06T01:07:24;15.60;73.10
41116;DHT22;26861;51.824;4.682;2024-01-06T01:09:49;15.50;72.90
41116;DHT22;26861;51.824;4.682;2024-01-06T01:12:15;15.60;72.80
41116;DHT22;26861;51.824;4.682;2024-01-06T01:14:41;15.60;73.00
41116;DHT22;26861;51.824;4.682;2024-01-06T01:17:06;13.70;71.80
41116;DHT22;26861;51.824;4.682;2024-01-06T01:19:32;15.50;72.60
41116;DHT22;26861;51.824;4.682;2024-01-06T01:21:57;15.60;73.00
41116;DHT22;26861;51.824;4.682;2024-01-06T01:24:22;15.60;72.80
41116;DHT22;26861;51.824;4.682;2024-01-06T01:26:48;15.50;72.60
41116;DHT22;26861;51.824;4.682;2024-01-06T01:29:14;15.60;73.20
41116;DHT22;26861;51.824;4.682;2024-01-06T01:31:39;15.60;72.80
41116;DHT22;26861;51.824;4.682;2024-01-06T01:34:05;14.80;72.30
41116;DHT22;26861;51.824;4.682;2024-01-06T01:36:30;13.60;71.80
41116;DHT22;26861;51.824;4.682;2024-01-06T01:38:56;15.50;72.50
41116;DHT22;26861;51.824;4.682;2024-01-06T01:41:21;15.50;72.50
41116;DHT22;26861;51.824;4.682;2024-01-06T01:43:47;15.50;72.70
41116;DHT22;26861;51.824;4.682;2024-01-06T01:46:12;15.60;72.60
41116;DHT22;26861;51.824;4.682;2024-01-06T01:48:38;15.50;72.30
41116;DHT22;26861;51.824;4.682;2024-01-06T01:51:04;15.30;72.40
41116;DHT22;26861;51.824;4.682;2024-01-06T01:53:30;15.50;72.60
41116;DHT22;26861;51.824;4.682;2024-01-06T01:55:56;15.50;72.50
41116;DHT22;26861;51.824;4.682;2024-01-06T01:58:23;15.60;72.80
41116;DHT22;26861;51.824;4.682;2024-01-06T02:00:48;15.50;72.30
41116;DHT22;26861;51.824;4.682;2024-01-06T02:03:14;15.50;72.00
41116;DHT22;26861;51.824;4.682;2024-01-06T02:05:40;15.50;72.40
41116;DHT22;26861;51.824;4.682;2024-01-06T02:08:06;15.50;72.80
41116;DHT22;26861;51.824;4.682;2024-01-06T02:10:31;15.50;72.50
41116;DHT22;26861;51.824;4.682;2024-01-06T02:13:06;15.50;72.20
41116;DHT22;26861;51.824;4.682;2024-01-06T02:15:32;15.40;72.50
41116;DHT22;26861;51.824;4.682;2024-01-06T02:17:57;15.40;72.50
41116;DHT22;26861;51.824;4.682;2024-01-06T02:20:23;15.40;72.40
41116;DHT22;26861;51.824;4.682;2024-01-06T02:22:50;15.40;72.50
41116;DHT22;26861;51.824;4.682;2024-01-06T02:25:16;15.40;72.50
41116;DHT22;26861;51.824;4.682;2024-01-06T02:27:43;15.40;72.80
41116;DHT22;26861;51.824;4.682;2024-01-06T02:30:09;15.40;72.60
41116;DHT22;26861;51.824;4.682;2024-01-06T02:32:35;15.40;71.80
41116;DHT22;26861;51.824;4.682;2024-01-06T02:35:01;15.40;73.10
41116;DHT22;26861;51.824;4.682;2024-01-06T02:37:27;15.40;72.80
41116;DHT22;26861;51.824;4.682;2024-01-06T02:39:53;15.40;72.50
41116;DHT22;26861;51.824;4.682;2024-01-06T02:42:19;15.40;72.80
41116;DHT22;26861;51.824;4.682;2024-01-06T02:44:45;15.40;72.80
41116;DHT22;26861;51.824;4.682;2024-01-06T02:47:11;15.30;72.70
41116;DHT22;26861;51.824;4.682;2024-01-06T02:49:36;15.40;72.90
41116;DHT22;26861;51.824;4.682;2024-01-06T02:52:02;15.40;73.20
41116;DHT22;26861;51.824;4.682;2024-01-06T02:54:28;15.40;72.60
41116;DHT22;26861;51.824;4.682;2024-01-06T02:56:53;15.40;73.10
41116;DHT22;26861;51.824;4.682;2024-01-06T02:59:18;15.30;72.80
41116;DHT22;26861;51.824;4.682;2024-01-06T03:01:44;15.40;72.40
41116;DHT22;26861;51.824;4.682;2024-01-06T03:04:09;15.30;72.80
41116;DHT22;26861;51.824;4.682;2024-01-06T03:06:35;15.40;72.80
41116;DHT22;26861;51.824;4.682;2024-01-06T03:09:00;15.40;72.80
41116;DHT22;26861;51.824;4.682;2024-01-06T03:11:26;15.40;72.90
41116;DHT22;26861;51.824;4.682;2024-01-06T03:13:51;15.30;72.50
41116;DHT22;26861;51.824;4.682;2024-01-06T03:16:17;15.30;73.00
41116;DHT22;26861;51.824;4.682;2024-01-06T03:18:42;15.30;72.70
41116;DHT22;26861;51.824;4.682;2024-01-06T03:21:20;15.30;73.00
41116;DHT22;26861;51.824;4.682;2024-01-06T03:23:48;15.40;67.50
41116;DHT22;26861;51.824;4.682;2024-01-06T03:26:14;15.30;72.70
41116;DHT22;26861;51.824;4.682;2024-01-06T03:28:40;15.30;72.50
41116;DHT22;26861;51.824;4.682;2024-01-06T03:31:05;15.30;72.60
41116;DHT22;26861;51.824;4.682;2024-01-06T03:33:30;15.30;72.40
41116;DHT22;26861;51.824;4.682;2024-01-06T03:35:56;15.30;72.50
41116;DHT22;26861;51.824;4.682;2024-01-06T03:38:21;15.30;72.80
41116;DHT22;26861;51.824;4.682;2024-01-06T03:40:47;15.30;72.80
41116;DHT22;26861;51.824;4.682;2024-01-06T03:43:12;15.30;72.80
41116;DHT22;26861;51.824;4.682;2024-01-06T03:45:38;15.30;72.90
41116;DHT22;26861;51.824;4.682;2024-01-06T03:48:03;15.20;73.00
41116;DHT22;26861;51.824;4.682;2024-01-06T03:50:29;15.30;71.60
41116;DHT22;26861;51.824;4.682;2024-01-06T03:52:55;15.30;72.60
41116;DHT22;26861;51.824;4.682;2024-01-06T03:55:20;15.30;72.70
41116;DHT22;26861;51.824;4.682;2024-01-06T03:57:46;15.20;72.60
41116;DHT22;26861;51.824;4.682;2024-01-06T04:00:12;15.30;72.50
41116;DHT22;26861;51.824;4.682;2024-01-06T04:02:37;15.20;72.40
41116;DHT22;26861;51.824;4.682;2024-01-06T04:05:03;15.30;72.90
41116;DHT22;26861;51.824;4.682;2024-01-06T04:07:30;15.30;71.80
41116;DHT22;26861;51.824;4.682;2024-01-06T04:09:56;15.20;72.50
41116;DHT22;26861;51.824;4.682;2024-01-06T04:12:22;15.20;72.80
41116;DHT22;26861;51.824;4.682;2024-01-06T04:14:47;15.10;72.70
41116;DHT22;26861;51.824;4.682;2024-01-06T04:17:13;15.30;72.80
41116;DHT22;26861;51.824;4.682;2024-01-06T04:19:38;15.00;72.40
41116;DHT22;26861;51.824;4.682;2024-01-06T04:22:04;15.20;72.70
41116;DHT22;26861;51.824;4.682;2024-01-06T04:24:29;15.20;72.10
41116;DHT22;26861;51.824;4.682;2024-01-06T04:26:55;15.20;72.20
41116;DHT22;26861;51.824;4.682;2024-01-06T04:29:21;15.30;72.60
41116;DHT22;26861;51.824;4.682;2024-01-06T04:31:46;15.20;72.60
41116;DHT22;26861;51.824;4.682;2024-01-06T04:34:12;15.10;72.60
41116;DHT22;26861;51.824;4.682;2024-01-06T04:36:37;15.10;72.60
41116;DHT22;26861;51.824;4.682;2024-01-06T04:39:03;15.20;72.40
41116;DHT22;26861;51.824;4.682;2024-01-06T04:41:28;15.10;72.60
41116;DHT22;26861;51.824;4.682;2024-01-06T04:43:54;15.20;72.60
41116;DHT22;26861;51.824;4.682;2024-01-06T04:46:19;15.20;72.60
41116;DHT22;26861;51.824;4.682;2024-01-06T04:48:45;15.10;72.30
41116;DHT22;26861;51.824;4.682;2024-01-06T04:51:10;15.20;72.50
41116;DHT22;26861;51.824;4.682;2024-01-06T04:53:36;15.20;72.30
41116;DHT22;26861;51.824;4.682;2024-01-06T04:56:02;15.10;72.20
41116;DHT22;26861;51.824;4.682;2024-01-06T04:58:27;15.10;72.00
41116;DHT22;26861;51.824;4.682;2024-01-06T05:00:53;15.10;72.40
41116;DHT22;26861;51.824;4.682;2024-01-06T05:03:18;15.00;72.30
41116;DHT22;26861;51.824;4.682;2024-01-06T05:05:44;15.10;72.20
41116;DHT22;26861;51.824;4.682;2024-01-06T05:08:10;15.10;71.90
41116;DHT22;26861;51.824;4.682;2024-01-06T05:10:36;14.70;72.20
41116;DHT22;26861;51.824;4.682;2024-01-06T05:13:02;15.10;72.20
41116;DHT22;26861;51.824;4.682;2024-01-06T05:15:28;15.10;72.00
41116;DHT22;26861;51.824;4.682;2024-01-06T05:17:54;15.10;72.30
41116;DHT22;26861;51.824;4.682;2024-01-06T05:20:22;15.10;71.90
41116;DHT22;26861;51.824;4.682;2024-01-06T05:22:48;15.20;72.00
41116;DHT22;26861;51.824;4.682;2024-01-06T05:25:14;15.10;72.30
41116;DHT22;26861;51.824;4.682;2024-01-06T05:27:40;15.10;72.00
41116;DHT22;26861;51.824;4.682;2024-01-06T05:30:06;15.10;72.20
41116;DHT22;26861;51.824;4.682;2024-01-06T05:32:33;15.00;70.30
41116;DHT22;26861;51.824;4.682;2024-01-06T05:34:58;15.00;72.40
41116;DHT22;26861;51.824;4.682;2024-01-06T05:37:24;15.10;72.20
41116;DHT22;26861;51.824;4.682;2024-01-06T05:39:49;15.00;72.30
41116;DHT22;26861;51.824;4.682;2024-01-06T05:42:15;15.10;72.50
41116;DHT22;26861;51.824;4.682;2024-01-06T05:44:40;15.10;72.50
41116;DHT22;26861;51.824;4.682;2024-01-06T05:47:06;15.10;72.00
41116;DHT22;26861;51.824;4.682;2024-01-06T05:49:33;15.00;72.10
41116;DHT22;26861;51.824;4.682;2024-01-06T05:51:59;15.10;72.20
41116;DHT22;26861;51.824;4.682;2024-01-06T05:54:24;15.00;72.10
41116;DHT22;26861;51.824;4.682;2024-01-06T05:56:50;15.00;71.80
41116;DHT22;26861;51.824;4.682;2024-01-06T05:59:15;15.10;72.40
41116;DHT22;26861;51.824;4.682;2024-01-06T06:01:41;15.00;72.10
41116;DHT22;26861;51.824;4.682;2024-01-06T06:04:07;14.90;71.80
41116;DHT22;26861;51.824;4.682;2024-01-06T06:06:32;15.00;72.40
41116;DHT22;26861;51.824;4.682;2024-01-06T06:08:58;15.00;72.60
41116;DHT22;26861;51.824;4.682;2024-01-06T06:11:23;14.90;72.40
41116;DHT22;26861;51.824;4.682;2024-01-06T06:13:49;15.00;72.60
41116;DHT22;26861;51.824;4.682;2024-01-06T06:16:14;15.00;72.50
41116;DHT22;26861;51.824;4.682;2024-01-06T06:18:40;15.00;72.60
41116;DHT22;26861;51.824;4.682;2024-01-06T06:21:09;15.00;72.40
41116;DHT22;26861;51.824;4.682;2024-01-06T06:23:34;14.90;67.60
41116;DHT22;26861;51.824;4.682;2024-01-06T06:26:04;15.00;72.70
41116;DHT22;26861;51.824;4.682;2024-01-06T06:28:30;15.00;67.70
41116;DHT22;26861;51.824;4.682;2024-01-06T06:30:55;14.90;72.80
41116;DHT22;26861;51.824;4.682;2024-01-06T06:33:21;15.20;72.90
41116;DHT22;26861;51.824;4.682;2024-01-06T06:35:46;15.00;73.10
41116;DHT22;26861;51.824;4.682;2024-01-06T06:38:12;15.00;72.70
41116;DHT22;26861;51.824;4.682;2024-01-06T06:40:37;14.90;72.90
41116;DHT22;26861;51.824;4.682;2024-01-06T06:43:03;15.00;72.80
41116;DHT22;26861;51.824;4.682;2024-01-06T06:45:28;14.90;72.30
41116;DHT22;26861;51.824;4.682;2024-01-06T06:47:54;14.90;73.00
41116;DHT22;26861;51.824;4.682;2024-01-06T06:50:19;14.90;73.00
41116;DHT22;26861;51.824;4.682;2024-01-06T06:52:46;14.90;72.90
41116;DHT22;26861;51.824;4.682;2024-01-06T06:55:11;14.90;73.00
41116;DHT22;26861;51.824;4.682;2024-01-06T06:57:38;14.90;73.10
41116;DHT22;26861;51.824;4.682;2024-01-06T07:00:03;15.20;73.40
41116;DHT22;26861;51.824;4.682;2024-01-06T07:02:29;15.00;73.10
41116;DHT22;26861;51.824;4.682;2024-01-06T07:04:55;14.90;73.50
41116;DHT22;26861;51.824;4.682;2024-01-06T07:07:21;15.00;73.30
41116;DHT22;26861;51.824;4.682;2024-01-06T07:09:46;14.90;73.50
41116;DHT22;26861;51.824;4.682;2024-01-06T07:12:11;14.80;73.70
41116;DHT22;26861;51.824;4.682;2024-01-06T07:14:37;14.90;73.80
41116;DHT22;26861;51.824;4.682;2024-01-06T07:17:03;15.10;73.80
41116;DHT22;26861;51.824;4.682;2024-01-06T07:19:30;15.00;72.70
41116;DHT22;26861;51.824;4.682;2024-01-06T07:21:56;14.90;73.80
41116;DHT22;26861;51.824;4.682;2024-01-06T07:24:21;14.90;73.90
41116;DHT22;26861;51.824;4.682;2024-01-06T07:26:47;15.00;73.90
41116;DHT22;26861;51.824;4.682;2024-01-06T07:29:12;14.90;73.60
41116;DHT22;26861;51.824;4.682;2024-01-06T07:31:38;15.00;74.10
41116;DHT22;26861;51.824;4.682;2024-01-06T07:34:04;14.90;73.90
41116;DHT22;26861;51.824;4.682;2024-01-06T07:36:29;14.90;73.80
41116;DHT22;26861;51.824;4.682;2024-01-06T07:38:55;15.00;73.60
41116;DHT22;26861;51.824;4.682;2024-01-06T07:41:21;14.90;73.80
41116;DHT22;26861;51.824;4.682;2024-01-06T07:43:46;15.00;74.00
41116;DHT22;26861;51.824;4.682;2024-01-06T07:46:12;15.00;73.70
41116;DHT22;26861;51.824;4.682;2024-01-06T07:48:37;15.00;73.50
41116;DHT22;26861;51.824;4.682;2024-01-06T07:51:03;15.10;73.80
41116;DHT22;26861;51.824;4.682;2024-01-06T07:53:29;15.00;72.70
41116;DHT22;26861;51.824;4.682;2024-01-06T07:55:54;15.10;73.50
41116;DHT22;26861;51.824;4.682;2024-01-06T07:58:20;15.10;73.40
41116;DHT22;26861;51.824;4.682;2024-01-06T08:00:47;15.00;73.50
41116;DHT22;26861;51.824;4.682;2024-01-06T08:03:12;15.00;73.10
41116;DHT22;26861;51.824;4.682;2024-01-06T08:05:38;15.00;73.50
41116;DHT22;26861;51.824;4.682;2024-01-06T08:08:04;15.00;73.80
41116;DHT22;26861;51.824;4.682;2024-01-06T08:10:29;14.90;72.40
41116;DHT22;26861;51.824;4.682;2024-01-06T08:12:55;15.00;73.60
41116;DHT22;26861;51.824;4.682;2024-01-06T08:15:20;15.00;73.60
41116;DHT22;26861;51.824;4.682;2024-01-06T08:17:46;15.00;73.70
41116;DHT22;26861;51.824;4.682;2024-01-06T08:20:12;14.90;73.40
41116;DHT22;26861;51.824;4.682;2024-01-06T08:22:38;15.00;73.50
41116;DHT22;26861;51.824;4.682;2024-01-06T08:25:04;14.80;73.50
41116;DHT22;26861;51.824;4.682;2024-01-06T08:27:32;14.90;73.10
41116;DHT22;26861;51.824;4.682;2024-01-06T08:29:57;15.00;73.70
41116;DHT22;26861;51.824;4.682;2024-01-06T08:32:23;14.90;73.40
41116;DHT22;26861;51.824;4.682;2024-01-06T08:34:49;15.00;73.50
41116;DHT22;26861;51.824;4.682;2024-01-06T08:37:14;15.20;73.60
41116;DHT22;26861;51.824;4.682;2024-01-06T08:39:40;15.00;73.40
41116;DHT22;26861;51.824;4.682;2024-01-06T08:42:06;14.80;73.20
41116;DHT22;26861;51.824;4.682;2024-01-06T08:44:32;15.00;73.20
41116;DHT22;26861;51.824;4.682;2024-01-06T08:46:57;15.00;73.50
41116;DHT22;26861;51.824;4.682;2024-01-06T08:49:23;15.00;73.20
41116;DHT22;26861;51.824;4.682;2024-01-06T08:51:48;15.00;73.10
41116;DHT22;26861;51.824;4.682;2024-01-06T08:54:14;15.00;73.30
41116;DHT22;26861;51.824;4.682;2024-01-06T08:56:39;14.90;73.40
41116;DHT22;26861;51.824;4.682;2024-01-06T08:59:05;15.00;73.20
41116;DHT22;26861;51.824;4.682;2024-01-06T09:01:30;15.00;73.00
41116;DHT22;26861;51.824;4.682;2024-01-06T09:03:57;15.00;73.60
41116;DHT22;26861;51.824;4.682;2024-01-06T09:06:23;15.10;73.60
41116;DHT22;26861;51.824;4.682;2024-01-06T09:08:49;14.90;73.50
41116;DHT22;26861;51.824;4.682;2024-01-06T09:11:14;14.90;73.40
41116;DHT22;26861;51.824;4.682;2024-01-06T09:13:41;15.00;73.30
41116;DHT22;26861;51.824;4.682;2024-01-06T09:16:06;14.80;73.60
41116;DHT22;26861;51.824;4.682;2024-01-06T09:18:32;14.90;73.40
41116;DHT22;26861;51.824;4.682;2024-01-06T09:20:57;14.90;73.10
41116;DHT22;26861;51.824;4.682;2024-01-06T09:23:23;15.10;73.10
41116;DHT22;26861;51.824;4.682;2024-01-06T09:25:48;14.90;73.10
41116;DHT22;26861;51.824;4.682;2024-01-06T09:28:16;14.90;73.10
41116;DHT22;26861;51.824;4.682;2024-01-06T09:30:41;14.90;72.60
41116;DHT22;26861;51.824;4.682;2024-01-06T09:33:06;14.90;73.00
41116;DHT22;26861;51.824;4.682;2024-01-06T09:35:33;14.90;73.20
41116;DHT22;26861;51.824;4.682;2024-01-06T09:37:59;14.90;72.90
41116;DHT22;26861;51.824;4.682;2024-01-06T09:40:25;14.90;72.80
41116;DHT22;26861;51.824;4.682;2024-01-06T09:42:51;14.90;72.80
41116;DHT22;26861;51.824;4.682;2024-01-06T09:45:16;14.90;72.40
41116;DHT22;26861;51.824;4.682;2024-01-06T09:47:42;14.80;72.80
41116;DHT22;26861;51.824;4.682;2024-01-06T09:50:08;14.90;72.80
41116;DHT22;26861;51.824;4.682;2024-01-06T09:52:38;15.00;72.50
41116;DHT22;26861;51.824;4.682;2024-01-06T09:55:04;14.80;72.60
41116;DHT22;26861;51.824;4.682;2024-01-06T09:57:30;15.00;71.30
41116;DHT22;26861;51.824;4.682;2024-01-06T09:59:57;14.90;72.80
41116;DHT22;26861;51.824;4.682;2024-01-06T10:02:22;14.80;72.40
41116;DHT22;26861;51.824;4.682;2024-01-06T10:04:49;14.80;72.40
41116;DHT22;26861;51.824;4.682;2024-01-06T10:07:15;14.90;72.50
41116;DHT22;26861;51.824;4.682;2024-01-06T10:09:41;14.80;72.70
41116;DHT22;26861;51.824;4.682;2024-01-06T10:12:07;14.60;72.10
41116;DHT22;26861;51.824;4.682;2024-01-06T10:14:35;14.90;71.30
41116;DHT22;26861;51.824;4.682;2024-01-06T10:17:01;14.90;72.20
41116;DHT22;26861;51.824;4.682;2024-01-06T10:19:26;14.80;72.30
41116;DHT22;26861;51.824;4.682;2024-01-06T10:21:52;14.90;72.30
41116;DHT22;26861;51.824;4.682;2024-01-06T10:24:18;14.80;72.10
41116;DHT22;26861;51.824;4.682;2024-01-06T10:26:46;14.80;71.70
41116;DHT22;26861;51.824;4.682;2024-01-06T10:29:15;14.90;71.80
41116;DHT22;26861;51.824;4.682;2024-01-06T10:31:41;14.70;67.00
41116;DHT22;26861;51.824;4.682;2024-01-06T10:34:06;14.90;72.10
41116;DHT22;26861;51.824;4.682;2024-01-06T10:36:32;14.80;72.00
41116;DHT22;26861;51.824;4.682;2024-01-06T10:38:57;14.70;71.90
41116;DHT22;26861;51.824;4.682;2024-01-06T10:41:23;14.90;72.00
41116;DHT22;26861;51.824;4.682;2024-01-06T10:43:49;14.80;72.00
41116;DHT22;26861;51.824;4.682;2024-01-06T10:46:16;14.80;72.30
41116;DHT22;26861;51.824;4.682;2024-01-06T10:48:43;14.80;72.60
41116;DHT22;26861;51.824;4.682;2024-01-06T10:51:11;14.80;72.50
41116;DHT22;26861;51.824;4.682;2024-01-06T10:53:37;14.80;72.30
41116;DHT22;26861;51.824;4.682;2024-01-06T10:56:07;14.80;72.20
41116;DHT22;26861;51.824;4.682;2024-01-06T10:58:33;14.70;71.40
41116;DHT22;26861;51.824;4.682;2024-01-06T11:01:02;14.80;72.30
41116;DHT22;26861;51.824;4.682;2024-01-06T11:03:28;14.80;72.00
41116;DHT22;26861;51.824;4.682;2024-01-06T11:05:54;14.80;72.50
41116;DHT22;26861;51.824;4.682;2024-01-06T11:08:20;14.80;71.60
41116;DHT22;26861;51.824;4.682;2024-01-06T11:10:46;14.80;72.00
41116;DHT22;26861;51.824;4.682;2024-01-06T11:13:13;14.80;71.80
41116;DHT22;26861;51.824;4.682;2024-01-06T11:15:46;14.40;72.00
41116;DHT22;26861;51.824;4.682;2024-01-06T11:18:30;14.70;66.80
41116;DHT22;26861;51.824;4.682;2024-01-06T11:23:42;14.70;66.90
41116;DHT22;26861;51.824;4.682;2024-01-06T11:26:08;14.70;71.60
41116;DHT22;26861;51.824;4.682;2024-01-06T11:28:44;15.00;71.80
41116;DHT22;26861;51.824;4.682;2024-01-06T11:31:10;14.70;67.10
41116;DHT22;26861;51.824;4.682;2024-01-06T11:33:45;14.70;71.70
41116;DHT22;26861;51.824;4.682;2024-01-06T11:36:18;14.60;66.80
41116;DHT22;26861;51.824;4.682;2024-01-06T11:38:45;14.70;71.90
41116;DHT22;26861;51.824;4.682;2024-01-06T11:41:44;14.60;72.10
41116;DHT22;26861;51.824;4.682;2024-01-06T11:44:04;14.70;66.80
41116;DHT22;26861;51.824;4.682;2024-01-06T11:46:29;14.60;71.90
41116;DHT22;26861;51.824;4.682;2024-01-06T11:48:55;14.60;71.70
41116;DHT22;26861;51.824;4.682;2024-01-06T11:51:21;14.60;71.80
41116;DHT22;26861;51.824;4.682;2024-01-06T11:53:46;14.50;71.80
41116;DHT22;26861;51.824;4.682;2024-01-06T11:56:12;14.60;71.80
41116;DHT22;26861;51.824;4.682;2024-01-06T11:58:41;14.60;71.80
41116;DHT22;26861;51.824;4.682;2024-01-06T12:01:06;14.60;66.70
41116;DHT22;26861;51.824;4.682;2024-01-06T12:03:32;14.60;71.50
41116;DHT22;26861;51.824;4.682;2024-01-06T12:06:01;14.60;71.80
41116;DHT22;26861;51.824;4.682;2024-01-06T12:08:27;14.60;66.90
41116;DHT22;26861;51.824;4.682;2024-01-06T12:11:03;14.50;71.70
41116;DHT22;26861;51.824;4.682;2024-01-06T12:13:29;14.70;66.90
41116;DHT22;26861;51.824;4.682;2024-01-06T12:15:55;14.60;71.10
41116;DHT22;26861;51.824;4.682;2024-01-06T12:18:21;14.50;71.60
41116;DHT22;26861;51.824;4.682;2024-01-06T12:20:47;14.50;71.70
41116;DHT22;26861;51.824;4.682;2024-01-06T12:23:22;14.50;72.00
41116;DHT22;26861;51.824;4.682;2024-01-06T12:25:48;14.50;71.90
41116;DHT22;26861;51.824;4.682;2024-01-06T12:28:15;14.50;71.60
41116;DHT22;26861;51.824;4.682;2024-01-06T12:30:41;14.50;71.50
41116;DHT22;26861;51.824;4.682;2024-01-06T12:33:07;14.50;72.00
41116;DHT22;26861;51.824;4.682;2024-01-06T12:35:34;14.50;71.80
41116;DHT22;26861;51.824;4.682;2024-01-06T12:38:01;14.50;71.80
41116;DHT22;26861;51.824;4.682;2024-01-06T12:40:27;14.50;71.80
41116;DHT22;26861;51.824;4.682;2024-01-06T12:42:53;14.40;72.10
41116;DHT22;26861;51.824;4.682;2024-01-06T12:45:19;14.40;72.00
41116;DHT22;26861;51.824;4.682;2024-01-06T12:47:44;14.50;71.60
41116;DHT22;26861;51.824;4.682;2024-01-06T12:50:10;14.40;71.90
41116;DHT22;26861;51.824;4.682;2024-01-06T12:52:35;14.40;71.70
41116;DHT22;26861;51.824;4.682;2024-01-06T12:55:03;14.40;71.80
41116;DHT22;26861;51.824;4.682;2024-01-06T12:57:29;14.40;70.40
41116;DHT22;26861;51.824;4.682;2024-01-06T12:59:55;14.40;71.40
41116;DHT22;26861;51.824;4.682;2024-01-06T13:02:20;13.90;71.30
41116;DHT22;26861;51.824;4.682;2024-01-06T13:04:46;14.40;71.00
41116;DHT22;26861;51.824;4.682;2024-01-06T13:07:11;14.50;72.10
41116;DHT22;26861;51.824;4.682;2024-01-06T13:09:38;14.40;71.40
41116;DHT22;26861;51.824;4.682;2024-01-06T13:12:04;14.40;72.00
41116;DHT22;26861;51.824;4.682;2024-01-06T13:14:30;14.40;69.80
41116;DHT22;26861;51.824;4.682;2024-01-06T13:16:57;14.30;71.60
41116;DHT22;26861;51.824;4.682;2024-01-06T13:19:23;14.30;71.90
41116;DHT22;26861;51.824;4.682;2024-01-06T13:21:49;14.50;71.80
41116;DHT22;26861;51.824;4.682;2024-01-06T13:24:15;14.40;71.90
41116;DHT22;26861;51.824;4.682;2024-01-06T13:26:41;14.30;71.40
41116;DHT22;26861;51.824;4.682;2024-01-06T13:29:07;14.40;71.60
41116;DHT22;26861;51.824;4.682;2024-01-06T13:31:33;14.30;71.80
41116;DHT22;26861;51.824;4.682;2024-01-06T13:33:59;14.30;71.90
41116;DHT22;26861;51.824;4.682;2024-01-06T13:36:25;14.30;71.60
41116;DHT22;26861;51.824;4.682;2024-01-06T13:38:50;14.30;71.50
41116;DHT22;26861;51.824;4.682;2024-01-06T13:41:16;14.30;71.40
41116;DHT22;26861;51.824;4.682;2024-01-06T13:43:41;14.30;71.40
41116;DHT22;26861;51.824;4.682;2024-01-06T13:46:07;14.30;71.60
41116;DHT22;26861;51.824;4.682;2024-01-06T13:48:33;14.30;71.60
41116;DHT22;26861;51.824;4.682;2024-01-06T13:50:58;14.30;71.50
41116;DHT22;26861;51.824;4.682;2024-01-06T13:53:24;14.20;71.40
41116;DHT22;26861;51.824;4.682;2024-01-06T13:55:50;14.30;71.40
41116;DHT22;26861;51.824;4.682;2024-01-06T13:58:17;14.20;71.60
41116;DHT22;26861;51.824;4.682;2024-01-06T14:00:43;14.10;72.00
41116;DHT22;26861;51.824;4.682;2024-01-06T14:03:08;14.20;71.10
41116;DHT22;26861;51.824;4.682;2024-01-06T14:05:34;14.00;71.10
41116;DHT22;26861;51.824;4.682;2024-01-06T14:08:00;14.30;71.20
41116;DHT22;26861;51.824;4.682;2024-01-06T14:10:26;14.10;71.10
41116;DHT22;26861;51.824;4.682;2024-01-06T14:12:53;14.20;71.50
41116;DHT22;26861;51.824;4.682;2024-01-06T14:15:18;13.90;71.60
41116;DHT22;26861;51.824;4.682;2024-01-06T14:17:44;14.20;71.50
41116;DHT22;26861;51.824;4.682;2024-01-06T14:20:15;14.00;70.80
41116;DHT22;26861;51.824;4.682;2024-01-06T14:22:46;14.20;70.80
41116;DHT22;26861;51.824;4.682;2024-01-06T14:25:12;14.10;66.20
41116;DHT22;26861;51.824;4.682;2024-01-06T14:27:38;14.10;71.40
41116;DHT22;26861;51.824;4.682;2024-01-06T14:30:04;14.10;71.60
41116;DHT22;26861;51.824;4.682;2024-01-06T14:32:32;14.10;69.40
41116;DHT22;26861;51.824;4.682;2024-01-06T14:35:01;14.10;71.00
41116;DHT22;26861;51.824;4.682;2024-01-06T14:37:27;14.10;71.50
41116;DHT22;26861;51.824;4.682;2024-01-06T14:39:53;13.80;71.40
41116;DHT22;26861;51.824;4.682;2024-01-06T14:42:19;14.20;71.40
41116;DHT22;26861;51.824;4.682;2024-01-06T14:44:45;14.00;71.30
41116;DHT22;26861;51.824;4.682;2024-01-06T14:47:11;14.10;71.20
41116;DHT22;26861;51.824;4.682;2024-01-06T14:49:38;14.10;71.20
41116;DHT22;26861;51.824;4.682;2024-01-06T14:52:04;14.10;71.20
41116;DHT22;26861;51.824;4.682;2024-01-06T14:54:30;14.10;70.00
41116;DHT22;26861;51.824;4.682;2024-01-06T14:56:58;14.00;71.00
41116;DHT22;26861;51.824;4.682;2024-01-06T14:59:24;14.10;71.40
41116;DHT22;26861;51.824;4.682;2024-01-06T15:01:50;14.00;71.10
41116;DHT22;26861;51.824;4.682;2024-01-06T15:04:16;14.10;71.20
41116;DHT22;26861;51.824;4.682;2024-01-06T15:06:44;14.00;71.10
41116;DHT22;26861;51.824;4.682;2024-01-06T15:09:10;14.00;71.10
41116;DHT22;26861;51.824;4.682;2024-01-06T15:11:36;14.00;71.40
41116;DHT22;26861;51.824;4.682;2024-01-06T15:14:01;14.00;71.20
41116;DHT22;26861;51.824;4.682;2024-01-06T15:16:30;14.00;70.90
41116;DHT22;26861;51.824;4.682;2024-01-06T15:18:56;14.00;71.90
41116;DHT22;26861;51.824;4.682;2024-01-06T15:21:25;14.10;70.80
41116;DHT22;26861;51.824;4.682;2024-01-06T15:23:53;14.10;71.20
41116;DHT22;26861;51.824;4.682;2024-01-06T15:26:21;14.00;70.90